createdAt,value
2022-08-07T00:00:07.710Z,14.70
2022-08-07T00:02:41.404Z,14.60
2022-08-07T00:09:34.263Z,14.50
2022-08-07T00:12:02.789Z,14.40
2022-08-07T00:14:31.543Z,14.40
2022-08-07T00:17:01.581Z,14.40
2022-08-07T00:19:59.892Z,14.40
2022-08-07T00:22:24.611Z,14.30
2022-08-07T00:25:06.962Z,14.30
2022-08-07T00:27:35.839Z,14.30
2022-08-07T00:30:26.581Z,14.30
2022-08-07T00:32:54.223Z,14.20
2022-08-07T00:35:22.920Z,14.20
2022-08-07T00:37:50.865Z,14.20
2022-08-07T00:40:36.655Z,14.20
2022-08-07T00:43:09.789Z,14.20
2022-08-07T00:45:40.592Z,14.20
2022-08-07T00:48:10.893Z,14.20
2022-08-07T00:50:46.323Z,14.20
2022-08-07T00:53:20.336Z,14.20
2022-08-07T00:56:02.099Z,14.20
2022-08-07T00:58:32.427Z,14.20
2022-08-07T01:00:59.925Z,14.20
2022-08-07T01:03:56.411Z,14.20
2022-08-07T01:06:15.741Z,14.20
2022-08-07T01:08:53.038Z,14.20
2022-08-07T01:12:09.428Z,14.10
2022-08-07T01:14:09.514Z,14.10
2022-08-07T01:16:37.307Z,14.10
2022-08-07T01:19:18.111Z,14.00
2022-08-07T01:21:47.467Z,14.10
2022-08-07T01:24:21.169Z,14.10
2022-08-07T01:26:54.103Z,14.00
2022-08-07T01:29:27.739Z,14.00
2022-08-07T01:31:59.564Z,14.00
2022-08-07T01:34:31.653Z,14.00
2022-08-07T01:37:02.184Z,14.00
2022-08-07T01:39:40.768Z,14.00
2022-08-07T01:42:57.152Z,13.90
2022-08-07T01:45:37.248Z,13.90
2022-08-07T01:48:20.504Z,13.80
2022-08-07T01:52:02.205Z,13.80
2022-08-07T01:54:12.593Z,13.70
2022-08-07T01:57:05.620Z,13.70
2022-08-07T01:59:52.047Z,13.60
2022-08-07T02:03:12.086Z,13.60
2022-08-07T02:05:47.711Z,13.50
2022-08-07T02:08:14.649Z,13.50
2022-08-07T02:10:44.368Z,13.40
2022-08-07T02:13:56.533Z,13.40
2022-08-07T02:16:18.134Z,13.40
2022-08-07T02:18:51.297Z,13.40
2022-08-07T02:21:19.267Z,13.30
2022-08-07T02:23:46.560Z,13.30
2022-08-07T02:26:32.880Z,13.20
2022-08-07T02:29:04.746Z,13.20
2022-08-07T02:31:32.933Z,13.20
2022-08-07T02:34:11.300Z,13.20
2022-08-07T02:36:50.339Z,13.20
2022-08-07T02:39:43.543Z,13.30
2022-08-07T02:42:10.035Z,13.40
2022-08-07T02:44:47.805Z,13.40
2022-08-07T02:47:40.134Z,13.50
2022-08-07T02:50:16.140Z,13.50
2022-08-07T02:52:52.095Z,13.60
2022-08-07T02:55:28.305Z,13.60
2022-08-07T02:58:17.609Z,13.60
2022-08-07T03:00:51.820Z,13.70
2022-08-07T03:03:22.823Z,13.70
2022-08-07T03:05:55.001Z,13.70
2022-08-07T03:08:26.962Z,13.70
2022-08-07T03:10:59.005Z,13.70
2022-08-07T03:13:39.245Z,13.80
2022-08-07T03:16:18.386Z,13.80
2022-08-07T03:18:52.162Z,13.80
2022-08-07T03:21:20.234Z,13.80
2022-08-07T03:24:21.039Z,13.80
2022-08-07T03:26:42.893Z,13.90
2022-08-07T03:29:27.639Z,13.90
2022-08-07T03:31:55.940Z,13.90
2022-08-07T03:34:27.548Z,13.90
2022-08-07T03:37:12.284Z,13.90
2022-08-07T03:39:59.421Z,13.90
2022-08-07T03:42:28.128Z,14.00
2022-08-07T03:44:58.004Z,13.90
2022-08-07T03:47:28.012Z,13.90
2022-08-07T03:50:00.249Z,13.90
2022-08-07T03:52:33.028Z,13.90
2022-08-07T03:55:07.336Z,13.90
2022-08-07T03:58:34.081Z,13.90
2022-08-07T04:00:38.411Z,13.90
2022-08-07T04:03:13.781Z,14.00
2022-08-07T04:05:42.180Z,14.00
2022-08-07T04:08:21.103Z,14.00
2022-08-07T04:10:53.942Z,14.00
2022-08-07T04:14:10.184Z,14.00
2022-08-07T04:16:31.337Z,14.10
2022-08-07T04:19:12.357Z,14.10
2022-08-07T04:21:59.568Z,14.10
2022-08-07T04:24:38.676Z,14.10
2022-08-07T04:27:15.115Z,14.10
2022-08-07T04:30:02.010Z,14.20
2022-08-07T04:32:44.956Z,14.20
2022-08-07T04:35:15.785Z,14.20
2022-08-07T04:38:03.082Z,14.20
2022-08-07T04:40:32.548Z,14.30
2022-08-07T04:43:01.608Z,14.30
2022-08-07T04:45:52.155Z,14.40
2022-08-07T04:48:35.060Z,14.40
2022-08-07T04:51:27.330Z,14.40
2022-08-07T04:54:06.462Z,14.50
2022-08-07T04:58:16.888Z,14.50
2022-08-07T05:00:11.889Z,14.60
2022-08-07T05:03:17.010Z,14.70
2022-08-07T05:06:16.379Z,14.80
2022-08-07T05:09:02.532Z,14.90
2022-08-07T05:12:27.415Z,15.00
2022-08-07T05:15:23.231Z,15.10
2022-08-07T05:18:00.901Z,15.20
2022-08-07T05:20:40.514Z,15.30
2022-08-07T05:23:23.168Z,15.40
2022-08-07T05:26:13.742Z,15.50
2022-08-07T05:28:51.115Z,15.60
2022-08-07T05:31:35.299Z,15.70
2022-08-07T05:34:10.894Z,15.90
2022-08-07T05:36:44.476Z,16.00
2022-08-07T05:40:13.409Z,16.10
2022-08-07T05:42:34.194Z,16.20
2022-08-07T05:45:25.918Z,16.40
2022-08-07T05:48:01.432Z,16.50
2022-08-07T05:50:35.088Z,16.60
2022-08-07T05:53:07.299Z,16.70
2022-08-07T05:56:03.834Z,16.80
2022-08-07T05:58:39.058Z,16.90
2022-08-07T06:01:11.491Z,17.00
2022-08-07T06:03:53.804Z,17.10
2022-08-07T06:06:29.741Z,17.20
2022-08-07T06:09:04.820Z,17.40
2022-08-07T06:11:34.786Z,17.50
2022-08-07T06:14:11.567Z,17.60
2022-08-07T06:16:50.714Z,17.70
2022-08-07T06:19:52.192Z,17.80
2022-08-07T06:22:23.455Z,18.00
2022-08-07T06:25:03.029Z,18.10
2022-08-07T06:27:43.919Z,18.20
2022-08-07T06:30:32.465Z,18.30
2022-08-07T06:33:09.760Z,18.50
2022-08-07T06:35:47.699Z,18.70
2022-08-07T06:38:20.307Z,18.80
2022-08-07T06:40:53.417Z,18.90
2022-08-07T06:43:24.476Z,19.10
2022-08-07T06:46:04.793Z,19.30
2022-08-07T06:48:42.053Z,19.40
2022-08-07T06:51:31.040Z,19.60
2022-08-07T06:55:31.840Z,19.80
2022-08-07T06:56:55.258Z,19.90
2022-08-07T07:00:11.415Z,20.10
2022-08-07T07:02:53.431Z,20.30
2022-08-07T07:05:13.565Z,20.60
2022-08-07T07:08:06.792Z,20.70
2022-08-07T07:10:35.480Z,20.90
2022-08-07T07:13:55.348Z,21.00
2022-08-07T07:16:13.478Z,21.20
2022-08-07T07:18:52.951Z,21.50
2022-08-07T07:21:27.010Z,21.80
2022-08-07T07:24:09.458Z,22.20
2022-08-07T07:26:49.564Z,23.10
2022-08-07T07:29:56.761Z,25.00
2022-08-07T07:32:12.808Z,27.10
2022-08-07T07:34:45.329Z,28.80
2022-08-07T07:37:44.350Z,30.20
2022-08-07T07:40:10.288Z,31.70
2022-08-07T07:42:50.919Z,33.20
2022-08-07T07:45:24.642Z,34.50
2022-08-07T07:48:11.936Z,35.60
2022-08-07T07:50:54.190Z,36.50
2022-08-07T07:53:25.782Z,37.50
2022-08-07T07:56:00.921Z,38.40
2022-08-07T07:58:37.036Z,39.30
2022-08-07T08:02:03.022Z,39.70
2022-08-07T08:04:06.518Z,40.10
2022-08-07T08:06:40.644Z,40.60
2022-08-07T08:09:23.639Z,40.60
2022-08-07T08:12:02.622Z,41.00
2022-08-07T08:14:34.462Z,41.00
2022-08-07T08:17:55.272Z,41.30
2022-08-07T08:20:19.386Z,41.50
2022-08-07T08:23:04.350Z,41.40
2022-08-07T08:25:57.969Z,41.70
2022-08-07T08:28:38.314Z,42.00
2022-08-07T08:31:15.749Z,42.10
2022-08-07T08:33:49.275Z,41.60
2022-08-07T08:36:25.698Z,41.20
2022-08-07T08:38:57.525Z,41.10
2022-08-07T08:41:57.919Z,40.80
2022-08-07T08:44:54.257Z,41.00
2022-08-07T08:47:30.117Z,41.60
2022-08-07T08:50:34.861Z,41.90
2022-08-07T08:53:20.389Z,41.90
2022-08-07T08:55:58.860Z,41.50
2022-08-07T08:59:06.319Z,41.90
2022-08-07T09:02:04.328Z,42.70
2022-08-07T09:04:50.198Z,42.20
2022-08-07T09:07:58.220Z,42.20
2022-08-07T09:10:28.717Z,42.90
2022-08-07T09:12:58.616Z,43.40
2022-08-07T09:16:23.995Z,43.60
2022-08-07T09:18:58.468Z,43.20
2022-08-07T09:21:34.417Z,43.30
2022-08-07T09:25:00.612Z,43.80
2022-08-07T09:27:59.870Z,44.30
2022-08-07T09:30:55.089Z,44.50
2022-08-07T09:33:57.603Z,44.90
2022-08-07T09:36:43.027Z,45.30
2022-08-07T09:39:53.641Z,45.20
2022-08-07T09:42:33.553Z,45.30
2022-08-07T09:47:49.424Z,45.60
2022-08-07T09:50:04.065Z,45.70
2022-08-07T09:52:33.476Z,44.50
2022-08-07T09:55:04.370Z,43.40
2022-08-07T09:57:53.230Z,43.40
2022-08-07T10:00:32.039Z,43.40
2022-08-07T10:04:06.153Z,43.20
2022-08-07T10:06:25.727Z,43.30
2022-08-07T10:09:00.566Z,42.80
2022-08-07T10:12:01.886Z,42.90
2022-08-07T10:14:41.078Z,43.60
2022-08-07T10:17:23.361Z,44.10
2022-08-07T10:20:13.059Z,44.40
2022-08-07T10:22:59.366Z,44.90
2022-08-07T10:25:42.071Z,45.50
2022-08-07T10:28:23.628Z,45.70
2022-08-07T10:31:38.992Z,45.70
2022-08-07T10:34:17.921Z,45.50
2022-08-07T10:36:55.890Z,45.40
2022-08-07T10:40:02.824Z,45.30
2022-08-07T10:42:53.971Z,45.00
2022-08-07T10:45:57.128Z,45.20
2022-08-07T10:48:35.480Z,45.80
2022-08-07T10:51:16.757Z,46.10
2022-08-07T10:54:17.998Z,46.00
2022-08-07T10:57:03.734Z,46.10
2022-08-07T10:59:50.240Z,45.80
2022-08-07T11:02:35.201Z,45.30
2022-08-07T11:05:48.969Z,44.90
2022-08-07T11:08:42.622Z,44.60
2022-08-07T11:11:20.905Z,44.40
2022-08-07T11:14:46.297Z,44.60
2022-08-07T11:17:07.406Z,44.30
2022-08-07T11:19:47.497Z,44.70
2022-08-07T11:22:45.804Z,44.90
2022-08-07T11:25:48.217Z,45.20
2022-08-07T11:28:41.232Z,45.70
2022-08-07T11:31:22.139Z,46.00
2022-08-07T11:34:00.062Z,46.10
2022-08-07T11:36:45.195Z,46.00
2022-08-07T11:40:05.442Z,45.70
2022-08-07T11:43:11.445Z,45.80
2022-08-07T11:46:25.191Z,45.90
2022-08-07T11:50:18.678Z,46.30
2022-08-07T11:52:37.754Z,46.60
2022-08-07T11:56:09.742Z,46.30
2022-08-07T11:58:56.222Z,46.30
2022-08-07T12:01:59.083Z,46.50
2022-08-07T12:04:45.946Z,46.40
2022-08-07T12:07:27.471Z,45.80
2022-08-07T12:10:05.815Z,45.50
2022-08-07T12:13:00.078Z,45.50
2022-08-07T12:15:46.749Z,45.30
2022-08-07T12:18:29.669Z,45.50
2022-08-07T12:21:11.216Z,45.70
2022-08-07T12:24:36.777Z,46.10
2022-08-07T12:27:03.850Z,46.20
2022-08-07T12:30:06.557Z,46.10
2022-08-07T12:33:02.938Z,45.60
2022-08-07T12:35:57.995Z,45.40
2022-08-07T12:38:36.849Z,45.00
2022-08-07T12:41:09.911Z,45.00
2022-08-07T12:44:02.622Z,45.10
2022-08-07T12:46:46.176Z,45.10
2022-08-07T12:49:51.326Z,45.00
2022-08-07T12:52:34.798Z,44.50
2022-08-07T12:55:40.997Z,43.50
2022-08-07T12:58:19.807Z,43.20
2022-08-07T13:01:32.025Z,43.60
2022-08-07T13:04:34.761Z,43.60
2022-08-07T13:08:12.003Z,43.30
2022-08-07T13:10:51.644Z,43.70
2022-08-07T13:13:47.293Z,44.10
2022-08-07T13:16:37.133Z,44.10
2022-08-07T13:19:46.287Z,44.00
2022-08-07T13:22:31.626Z,43.10
2022-08-07T13:25:09.172Z,40.80
2022-08-07T13:28:13.952Z,39.00
2022-08-07T13:30:41.082Z,37.10
2022-08-07T13:34:30.970Z,35.60
2022-08-07T13:36:44.425Z,34.50
2022-08-07T13:39:28.377Z,33.70
2022-08-07T13:42:14.593Z,33.20
2022-08-07T13:44:55.424Z,32.80
2022-08-07T13:48:07.606Z,32.40
2022-08-07T13:50:32.657Z,31.90
2022-08-07T13:53:21.766Z,31.60
2022-08-07T13:55:54.594Z,31.40
2022-08-07T13:58:56.175Z,31.10
2022-08-07T14:01:26.447Z,30.80
2022-08-07T14:04:07.658Z,30.60
2022-08-07T14:06:39.041Z,30.50
2022-08-07T14:09:09.938Z,30.30
2022-08-07T14:12:01.159Z,30.20
2022-08-07T14:14:48.024Z,30.00
2022-08-07T14:17:51.542Z,29.80
2022-08-07T14:20:40.570Z,29.70
2022-08-07T14:23:58.798Z,29.50
2022-08-07T14:26:27.993Z,29.50
2022-08-07T14:29:10.653Z,29.50
2022-08-07T14:31:56.147Z,29.30
2022-08-07T14:34:29.926Z,29.20
2022-08-07T14:37:01.731Z,29.20
2022-08-07T14:40:15.701Z,29.10
2022-08-07T14:42:26.281Z,29.00
2022-08-07T14:47:45.629Z,28.70
2022-08-07T14:50:19.802Z,28.70
2022-08-07T14:55:55.388Z,28.60
2022-08-07T14:58:32.526Z,28.60
2022-08-07T15:01:22.022Z,28.50
2022-08-07T15:03:52.313Z,28.40
2022-08-07T15:06:29.886Z,28.30
2022-08-07T15:09:59.230Z,28.20
2022-08-07T15:12:30.467Z,28.10
2022-08-07T15:15:07.544Z,28.10
2022-08-07T15:17:54.964Z,28.10
2022-08-07T15:20:33.083Z,28.10
2022-08-07T15:25:56.212Z,28.00
2022-08-07T15:28:34.737Z,27.80
2022-08-07T15:31:10.229Z,27.70
2022-08-07T15:33:42.837Z,27.70
2022-08-07T15:36:11.583Z,27.70
2022-08-07T15:38:51.784Z,27.70
2022-08-07T15:42:44.358Z,27.70
2022-08-07T15:44:23.751Z,27.60
2022-08-07T15:47:09.036Z,27.60
2022-08-07T15:50:04.929Z,27.70
2022-08-07T15:52:36.590Z,27.60
2022-08-07T15:55:08.653Z,27.60
2022-08-07T15:57:39.689Z,27.50
2022-08-07T16:00:31.238Z,27.50
2022-08-07T16:03:46.419Z,27.40
2022-08-07T16:06:10.572Z,27.40
2022-08-07T16:08:42.403Z,27.40
2022-08-07T16:11:44.564Z,27.30
2022-08-07T16:14:19.223Z,27.30
2022-08-07T16:17:02.274Z,27.30
2022-08-07T16:19:59.587Z,27.30
2022-08-07T16:22:38.734Z,27.20
2022-08-07T16:25:54.692Z,27.20
2022-08-07T16:30:06.977Z,27.20
2022-08-07T16:32:07.821Z,27.20
2022-08-07T16:34:59.846Z,27.20
2022-08-07T16:38:05.527Z,27.20
2022-08-07T16:41:07.002Z,27.20
2022-08-07T16:44:02.460Z,27.00
2022-08-07T16:47:07.632Z,27.00
2022-08-07T16:50:27.973Z,27.00
2022-08-07T16:53:26.837Z,26.90
2022-08-07T16:56:32.017Z,26.90
2022-08-07T16:59:19.449Z,26.80
2022-08-07T17:02:50.956Z,26.70
2022-08-07T17:05:41.524Z,26.70
2022-08-07T17:08:00.178Z,26.60
2022-08-07T17:10:54.954Z,26.50
2022-08-07T17:13:41.296Z,26.40
2022-08-07T17:16:31.332Z,26.30
2022-08-07T17:19:01.119Z,26.20
2022-08-07T17:21:51.675Z,26.10
2022-08-07T17:24:42.635Z,26.10
2022-08-07T17:27:32.569Z,26.00
2022-08-07T17:30:15.973Z,25.90
2022-08-07T17:33:05.003Z,25.90
2022-08-07T17:35:55.886Z,25.80
2022-08-07T17:38:33.265Z,25.70
2022-08-07T17:41:12.392Z,25.60
2022-08-07T17:44:08.322Z,25.60
2022-08-07T17:46:52.529Z,25.50
2022-08-07T17:49:44.981Z,25.40
2022-08-07T17:52:30.983Z,25.30
2022-08-07T17:56:01.118Z,25.20
2022-08-07T17:58:29.905Z,25.20
2022-08-07T18:01:02.222Z,25.10
2022-08-07T18:04:04.201Z,25.00
2022-08-07T18:06:47.432Z,25.00
2022-08-07T18:09:48.269Z,24.90
2022-08-07T18:12:57.306Z,24.80
2022-08-07T18:15:38.520Z,24.70
2022-08-07T18:18:46.011Z,24.60
2022-08-07T18:21:42.357Z,24.50
2022-08-07T18:24:33.862Z,24.40
2022-08-07T18:27:38.401Z,24.30
2022-08-07T18:30:32.282Z,24.20
2022-08-07T18:33:55.260Z,24.10
2022-08-07T18:36:53.801Z,24.00
2022-08-07T18:40:08.710Z,23.90
2022-08-07T18:42:49.139Z,23.80
2022-08-07T18:45:42.929Z,23.70
2022-08-07T18:50:04.793Z,23.60
2022-08-07T18:52:09.659Z,23.50
2022-08-07T18:54:27.978Z,23.40
2022-08-07T18:57:30.253Z,23.30
2022-08-07T19:00:32.043Z,23.20
2022-08-07T19:03:15.751Z,23.10
2022-08-07T19:06:16.447Z,23.00
2022-08-07T19:08:55.870Z,22.90
2022-08-07T19:11:37.532Z,22.80
2022-08-07T19:14:22.691Z,22.70
2022-08-07T19:17:07.612Z,22.70
2022-08-07T19:19:46.511Z,22.60
2022-08-07T19:22:51.191Z,22.50
2022-08-07T19:26:23.664Z,22.40
2022-08-07T19:28:57.903Z,22.30
2022-08-07T19:32:10.894Z,22.20
2022-08-07T19:34:34.084Z,22.10
2022-08-07T19:37:10.194Z,21.90
2022-08-07T19:39:57.800Z,21.80
2022-08-07T19:42:31.619Z,21.70
2022-08-07T19:45:13.309Z,21.60
2022-08-07T19:48:00.348Z,21.50
2022-08-07T19:50:44.189Z,21.40
2022-08-07T19:54:34.579Z,21.40
2022-08-07T19:56:58.629Z,21.30
2022-08-07T19:58:58.071Z,21.20
2022-08-07T20:01:52.803Z,21.20
2022-08-07T20:04:31.044Z,21.10
2022-08-07T20:07:00.385Z,21.10
2022-08-07T20:10:36.181Z,21.00
2022-08-07T20:12:31.655Z,20.90
2022-08-07T20:15:09.713Z,20.90
2022-08-07T20:18:01.800Z,20.80
2022-08-07T20:20:33.699Z,20.80
2022-08-07T20:23:23.348Z,20.80
2022-08-07T20:25:56.000Z,20.70
2022-08-07T20:28:29.964Z,20.70
2022-08-07T20:30:58.688Z,20.60
2022-08-07T20:33:37.499Z,20.60
2022-08-07T20:36:07.946Z,20.50
2022-08-07T20:38:59.374Z,20.50
2022-08-07T20:41:38.553Z,20.40
2022-08-07T20:44:12.421Z,20.40
2022-08-07T20:46:44.038Z,20.30
2022-08-07T20:50:00.966Z,20.30
2022-08-07T20:52:09.326Z,20.20
2022-08-07T20:54:53.422Z,20.10
2022-08-07T20:57:47.460Z,20.10
2022-08-07T21:00:44.210Z,20.10
2022-08-07T21:03:16.300Z,20.00
2022-08-07T21:05:55.839Z,20.00
2022-08-07T21:08:37.323Z,20.00
2022-08-07T21:11:10.694Z,19.90
2022-08-07T21:13:57.209Z,19.90
2022-08-07T21:16:37.921Z,19.90
2022-08-07T21:19:50.851Z,19.80
2022-08-07T21:22:19.935Z,19.80
2022-08-07T21:24:49.861Z,19.80
2022-08-07T21:27:47.020Z,19.80
2022-08-07T21:30:17.176Z,19.70
2022-08-07T21:33:11.713Z,19.60
2022-08-07T21:36:05.978Z,19.60
2022-08-07T21:39:46.950Z,19.50
2022-08-07T21:42:14.887Z,19.50
2022-08-07T21:45:24.254Z,19.40
2022-08-07T21:48:02.784Z,19.40
2022-08-07T21:50:30.547Z,19.30
2022-08-07T21:53:46.487Z,19.20
2022-08-07T21:56:47.894Z,19.20
2022-08-07T21:59:27.290Z,19.10
2022-08-07T22:02:11.184Z,19.10
2022-08-07T22:04:51.281Z,19.00
2022-08-07T22:07:31.870Z,19.00
2022-08-07T22:10:15.080Z,18.90
2022-08-07T22:12:48.064Z,18.90
2022-08-07T22:16:43.509Z,18.80
2022-08-07T22:18:32.960Z,18.70
2022-08-07T22:21:11.464Z,18.60
2022-08-07T22:23:54.751Z,18.50
2022-08-07T22:26:44.354Z,18.50
2022-08-07T22:29:48.029Z,18.40
2022-08-07T22:32:44.426Z,18.30
2022-08-07T22:35:12.347Z,18.10
2022-08-07T22:38:05.387Z,18.10
2022-08-07T22:40:54.667Z,18.00
2022-08-07T22:43:33.912Z,18.00
2022-08-07T22:47:02.851Z,17.90
2022-08-07T22:48:56.286Z,17.80
2022-08-07T22:52:01.422Z,17.70
2022-08-07T22:54:48.916Z,17.70
2022-08-07T22:57:42.082Z,17.60
2022-08-07T23:00:18.367Z,17.60
2022-08-07T23:02:54.044Z,17.50
2022-08-07T23:06:09.401Z,17.50
2022-08-07T23:10:00.460Z,17.40
2022-08-07T23:12:34.196Z,17.40
2022-08-07T23:15:04.114Z,17.30
2022-08-07T23:17:54.584Z,17.30
2022-08-07T23:20:52.745Z,17.20
2022-08-07T23:24:04.269Z,17.20
2022-08-07T23:26:55.027Z,17.10
2022-08-07T23:30:39.039Z,17.00
2022-08-07T23:34:34.700Z,17.00
2022-08-07T23:36:33.346Z,17.00
2022-08-07T23:39:47.565Z,16.90
2022-08-07T23:42:56.165Z,16.90
2022-08-07T23:46:10.392Z,16.90
2022-08-07T23:49:15.819Z,16.80
2022-08-07T23:53:00.668Z,16.80
2022-08-07T23:54:55.099Z,16.70
2022-08-07T23:57:27.688Z,16.70
